Flight Track Log - Related Links

Times and Time Zones

All times are in EDT time to prevent confusion due to time zone crossing. See the N2299W flight status page for this flight to view local times or setup timezone preferences in your user account.

Time Position Orientation Groundspeed Altitude Reporting Facility
EDT Latitude Longitude Course Direction KTS MPH feet Rate Location/Type
Tue 11:46:00 PM 30.3423 -86.2680 120° Southeast  Level FlightAware Approximate
Tue 11:47:00 PM 30.3306 -86.2361 103° East  Level FlightAware Approximate
Tue 11:48:00 PM 30.3238 -86.2020 103° East  Level FlightAware Approximate
Tue 11:49:00 PM 30.3170 -86.1680 103° East  Level FlightAware Approximate
Tue 11:50:00 PM 30.3132 -86.1336 104° East  Level FlightAware Approximate
Tue 11:51:00 PM 30.3061 -86.1004 104° East  Level FlightAware Approximate
Tue 11:51:40 PM 30.2919 -86.1353 107° East 89 102 3,800  Level Jacksonville Center
Tue 11:52:00 PM 30.2990 -86.0672 104° East  Level FlightAware Approximate
Tue 11:52:40 PM 30.2825 -86.1061 111° Southeast 94 108 4,100  Level Jacksonville Center
Tue 11:53:00 PM 30.2917 -86.0334 104° East  Level FlightAware Approximate
Tue 11:53:40 PM 30.2747 -86.0794 109° East 94 108 4,400  Level Jacksonville Center
Tue 11:54:00 PM 30.2845 -85.9996 104° East  Level FlightAware Approximate
Tue 11:54:40 PM 30.2669 -86.0528 109° East 88 101 4,600  Level Jacksonville Center
Tue 11:55:00 PM 30.2772 -85.9658 104° East  Level FlightAware Approximate
Tue 11:55:40 PM 30.2614 -86.0261 104° East 88 101 4,800  Level Jacksonville Center
Tue 11:56:00 PM 30.2700 -85.9320 104° East  Level FlightAware Approximate
Tue 11:56:40 PM 30.2539 -85.9944 105° East 88 101 5,000  Level Jacksonville Center
Tue 11:57:00 PM 30.2618 -85.8984 107° East  Level FlightAware Approximate
Tue 11:57:40 PM 30.2419 -85.9628 114° Southeast 93 107 5,000  Level Jacksonville Center
Tue 11:58:40 PM 30.2344 -85.9292 104° East 98 113 5,000  Level Jacksonville Center
Tue 11:59:40 PM 30.2292 -85.8953 100° East 103 119 5,000  Level Jacksonville Center
Wed 12:00:40 AM 30.2256 -85.8614 97° East 108 124 5,000  Level Jacksonville Center
Wed 12:01:40 AM 30.2183 -85.8228 102° East 108 124 5,000  Level Jacksonville Center
Wed 12:02:40 AM 30.2128 -85.7889 101° East 108 124 5,000  Level Jacksonville Center
Wed 12:03:40 AM 30.2053 -85.7503 103° East 108 124 5,000  Level Jacksonville Center
Wed 12:04:40 AM 30.1997 -85.7142 100° East 108 124 5,000  Level Jacksonville Center
Wed 12:05:40 AM 30.2006 -85.6781 88° East 108 124 5,000  Level Jacksonville Center
Wed 12:06:40 AM 30.2014 -85.6419 88° East 108 124 5,000 -50 Level Jacksonville Center
Wed 12:07:40 AM 30.2000 -85.6058 93° East 108 124 4,900 -50 Descending Jacksonville Center
Wed 12:08:40 AM 30.2028 -85.5700 85° East 108 124 4,900 50 Level Jacksonville Center
Wed 12:09:40 AM 30.2036 -85.5364 88° East 103 119 5,000 50 Climbing Jacksonville Center
Wed 12:10:40 AM 30.2044 -85.4978 89° East 103 119 5,000  Level Jacksonville Center
Wed 12:11:40 AM 30.2050 -85.4642 89° East 103 119 5,000  Level Jacksonville Center
Wed 12:12:40 AM 30.2058 -85.4258 89° East 103 119 5,000  Level Jacksonville Center
Wed 12:13:40 AM 30.2067 -85.3897 88° East 103 119 5,000  Level Jacksonville Center
Wed 12:14:40 AM 30.2053 -85.3561 93° East 103 119 5,000  Level Jacksonville Center
Wed 12:15:40 AM 30.2058 -85.3178 89° East 103 119 5,000  Level Jacksonville Center
Wed 12:16:40 AM 30.2044 -85.2792 92° East 103 119 5,000  Level Jacksonville Center
Wed 12:17:40 AM 30.2031 -85.2456 93° East 103 119 5,000  Level Jacksonville Center
Wed 12:18:40 AM 30.2036 -85.2094 89° East 103 119 5,000  Level Jacksonville Center
Wed 12:19:40 AM 30.2044 -85.1733 88° East 103 119 5,000  Level Jacksonville Center
Wed 12:20:40 AM 30.2050 -85.1375 89° East 103 119 5,000  Level Jacksonville Center
Wed 12:21:40 AM 30.2056 -85.1014 89° East 103 119 5,000  Level Jacksonville Center
Wed 12:22:40 AM 30.2042 -85.0653 93° East 103 119 5,000  Level Jacksonville Center
Wed 12:23:40 AM 30.2069 -85.0292 85° East 103 119 5,000  Level Jacksonville Center
Wed 12:24:40 AM 30.2075 -84.9933 89° East 103 119 5,000  Level Jacksonville Center
Wed 12:25:40 AM 30.2081 -84.9547 89° East 103 119 5,000  Level Jacksonville Center
Wed 12:26:40 AM 30.2128 -84.9189 81° East 103 119 5,000 50 Level Jacksonville Center
Wed 12:27:40 AM 30.2156 -84.8853 85° East 103 119 5,100 50 Climbing Jacksonville Center
Wed 12:28:40 AM 30.2181 -84.8469 86° East 108 124 5,100 -50 Level Jacksonville Center
Wed 12:29:40 AM 30.2186 -84.8108 89° East 108 124 5,000 -50 Descending Jacksonville Center
Wed 12:30:40 AM 30.2214 -84.7747 85° East 108 124 5,000  Level Jacksonville Center
Wed 12:31:40 AM 30.2219 -84.7364 89° East 108 124 5,000  Level Jacksonville Center
Wed 12:32:40 AM 30.2225 -84.6978 89° East 108 124 5,000  Level Jacksonville Center
Wed 12:33:40 AM 30.2208 -84.6619 93° East 108 124 5,000  Level Jacksonville Center
Wed 12:34:40 AM 30.2192 -84.6281 93° East 108 124 5,000  Level Jacksonville Center
Wed 12:35:40 AM 30.2217 -84.5922 85° East 108 124 5,000  Level Jacksonville Center
Wed 12:36:50 AM 30.2219 -84.5706 89° East 108 124 5,000  Level Jacksonville Center
Wed 12:37:50 AM 30.2269 -84.5178 84° East 119 137 5,000  Level Jacksonville Center
Wed 12:38:50 AM 30.2294 -84.4817 85° East 119 137 5,000  Level Jacksonville Center
Wed 12:39:50 AM 30.2278 -84.4433 93° East 114 131 5,000  Level Jacksonville Center
Wed 12:40:50 AM 30.2242 -84.4072 97° East 114 131 5,000  Level Jacksonville Center
Wed 12:41:50 AM 30.2244 -84.3711 89° East 114 131 5,000 -50 Level Jacksonville Center
Wed 12:42:50 AM 30.2269 -84.3350 85° East 114 131 4,900 -50 Descending Jacksonville Center
Wed 12:43:49 AM 30.2294 -84.2989 85° East 114 131 4,900 50 Level Jacksonville Center
Wed 12:44:49 AM 30.2319 -84.2653 85° East 109 125 5,000 50 Climbing Jacksonville Center
Wed 12:45:49 AM 30.2303 -84.2292 93° East 104 120 5,000 -50 Level Jacksonville Center
Wed 12:46:49 AM 30.2328 -84.1956 85° East 104 120 4,900  Descending Jacksonville Center
Wed 12:47:49 AM 30.2331 -84.1547 90° East 109 125 5,000 50 Climbing Jacksonville Center
Wed 12:48:49 AM 30.2336 -84.1189 89° East 109 125 5,000  Level Jacksonville Center
Wed 12:49:49 AM 30.2339 -84.0850 89° East 109 125 5,000  Level Jacksonville Center
Wed 12:50:49 AM 30.2300 -84.0489 97° East 104 120 5,000  Level Jacksonville Center
Wed 12:51:49 AM 30.2281 -84.0128 94° East 104 120 5,000  Level Jacksonville Center
Wed 12:52:49 AM 30.2286 -83.9769 89° East 104 120 5,000  Level Jacksonville Center
Wed 12:53:49 AM 30.2289 -83.9408 89° East 104 120 5,000  Level Jacksonville Center
Wed 12:54:49 AM 30.2311 -83.9047 86° East 104 120 5,000  Level Jacksonville Center
Wed 12:55:49 AM 30.2272 -83.8661 97° East 104 120 5,000  Level Jacksonville Center
Wed 12:56:49 AM 30.2297 -83.8303 85° East 104 120 5,000  Level Jacksonville Center
Wed 12:57:49 AM 30.2300 -83.7967 89° East 104 120 5,000  Level Jacksonville Center
Wed 12:58:49 AM 30.2322 -83.7581 86° East 104 120 5,000  Level Jacksonville Center
Wed 12:59:49 AM 30.2303 -83.7219 94° East 104 120 5,000  Level Jacksonville Center
Wed 01:00:49 AM 30.2328 -83.6858 85° East 104 120 5,000  Level Jacksonville Center
Wed 01:01:49 AM 30.2308 -83.6500 94° East 104 120 5,000  Level Jacksonville Center
Wed 01:02:49 AM 30.2311 -83.6161 89° East 104 120 5,000  Level Jacksonville Center
Wed 01:03:49 AM 30.2292 -83.5778 93° East 104 120 5,000  Level Jacksonville Center
Wed 01:04:49 AM 30.2272 -83.5417 94° East 104 120 5,000  Level Jacksonville Center
Wed 01:05:49 AM 30.2294 -83.5033 86° East 104 120 5,000  Level Jacksonville Center
Wed 01:06:49 AM 30.2297 -83.4672 89° East 104 120 5,000 -50 Level Jacksonville Center
Wed 01:07:49 AM 30.2300 -83.4336 89° East 104 120 4,900 -50 Descending Jacksonville Center
Wed 01:08:49 AM 30.2322 -83.3950 86° East 104 120 4,900 50 Level Jacksonville Center
Wed 01:09:49 AM 30.2322 -83.3589 90° East 104 120 5,000 50 Climbing Jacksonville Center
Wed 01:10:49 AM 30.2344 -83.3231 86° East 104 120 5,000  Level Jacksonville Center
Wed 01:11:49 AM 30.2325 -83.2844 93° East 104 120 5,000  Level Jacksonville Center
Wed 01:12:49 AM 30.2325 -83.2508 90° East 104 120 5,000  Level Jacksonville Center
Wed 01:13:49 AM 30.2369 -83.2100 83° East 104 120 5,000  Level Jacksonville Center
Wed 01:14:49 AM 30.2369 -83.1714 90° East 104 120 5,000  Level Jacksonville Center
Wed 01:15:49 AM 30.2350 -83.1331 93° East 104 120 5,000 -50 Level Jacksonville Center
Wed 01:16:49 AM 30.2331 -83.0944 93° East 109 125 4,900  Descending Jacksonville Center
Wed 01:17:49 AM 30.2331 -83.0561 90° East 114 131 5,000 50 Climbing Jacksonville Center
Wed 01:18:49 AM 30.2308 -83.0175 94° East 119 137 5,000  Level Jacksonville Center
Wed 01:19:49 AM 30.2289 -82.9792 93° East 119 137 5,000  Level Jacksonville Center
Wed 01:20:49 AM 30.2269 -82.9406 93° East 119 137 5,000  Level Jacksonville Center
Wed 01:21:49 AM 30.2269 -82.9022 90° East 119 137 5,000 50 Level Jacksonville Center
Wed 01:22:49 AM 30.2289 -82.8661 86° East 119 137 5,100  Climbing Jacksonville Center
Wed 01:23:49 AM 30.2269 -82.8278 93° East 119 137 5,000  Descending Jacksonville Center
Wed 01:24:49 AM 30.2289 -82.7917 86° East 119 137 5,100 50 Climbing Jacksonville Center
Wed 01:25:49 AM 30.2289 -82.7531 90° East 119 137 5,100  Level Jacksonville Center
Wed 01:26:49 AM 30.2267 -82.7172 94° East 119 137 5,100 -50 Level Jacksonville Center
Wed 01:27:49 AM 30.2267 -82.6786 90° East 119 137 5,000  Descending Jacksonville Center
Wed 01:28:49 AM 30.2267 -82.6403 90° East 119 137 5,100 54 Climbing Jacksonville Center
Wed 01:29:40 AM 30.2267 -82.6114 90° East 114 131 5,100 -50 Level Jacksonville Center
Wed 01:30:49 AM 30.2264 -82.5728 90° East 114 131 5,000 -186 Descending Jacksonville Center
Wed 01:31:49 AM 30.2264 -82.5344 90° East 114 131 4,700 -200 Descending Jacksonville Center
Wed 01:32:49 AM 30.2242 -82.4936 94° East 120 138 4,600 -200 Descending Jacksonville Center
Wed 01:33:49 AM 30.2281 -82.4550 83° East 120 138 4,300 -550 Descending Jacksonville Center
Wed 01:34:49 AM 30.2258 -82.4142 94° East 120 138 3,500 -800 Descending Jacksonville Center
Wed 01:35:49 AM 30.2258 -82.3756 90° East 120 138 2,700 -600 Descending Jacksonville Center
Wed 01:36:49 AM 30.2256 -82.3372 90° East 120 138 2,300 -300 Descending Jacksonville Center
Wed 01:37:49 AM 30.2275 -82.2989 87° East 120 138 2,100 -150 Descending Jacksonville Center
Wed 01:38:49 AM 30.2275 -82.2628 90° East 120 138 2,000 -47 Descending Jacksonville Center
Wed 01:39:58 AM 30.2250 -82.2169 94° East 111 128 2,000  Level Jacksonville Center
Wed 01:40:59 AM 30.2250 -82.1833 90° East 108 124 2,000  Level Jacksonville Center
Wed 01:41:59 AM 30.2267 -82.1497 87° East 110 127 2,000 -50 Level Jacksonville Center
Wed 01:43:00 AM 30.2308 -82.1136 82° East 107 123 1,900 -98 Descending Jacksonville Center
Wed 01:44:01 AM 30.2283 -82.0800 95° East 113 130 1,800  Descending Jacksonville Center
Wed 01:45:01 AM 30.2261 -82.0439 94° East 105 121 1,900  Climbing Jacksonville Center
Wed 01:46:02 AM 30.2217 -82.0103 99° East 110 127 1,800 -246 Descending Jacksonville Center
Wed 01:47:03 AM 30.2153 -81.9744 102° East 103 119 1,400 -522 Descending Jacksonville Center
Wed 01:47:57 AM 30.2128 -81.9456 96° East 104 120 800 -417 Descending Jacksonville Center
Wed 01:48:58 AM 30.2128 -81.9142 90° East 93 107 600 -197 Descending Jacksonville Center
Wed 01:50:00 AM 30.2158 -81.8778 85° East  Level FlightAware Approximate

Login

Don't have an account? Register now (free) for customized features, flight alerts, and more!